Aérodrome :
LOGIN :

S'inscrire | Disclaimer

   EN    FR    IT 

 










Légende :    VFR   VFR Marginal   IFR   IFR Intensif   IFR Très Intensif
Visi : 
Plafond : 
>= 8 km
>= 3000ft
5 à 8 km
1000 à 3000 ft
1500m à 5 km
500 à 1000 ft
800 à 1500m
200 à 500 ft
< 800m
< 200 ft
Symboles :   Orages  Brouillard  Fortes neiges  Fortes précipitations  Vent > 20 kt
SIGMETs :   Divers  Orages  Givrage  Turbulence  Onde Orograph.  Cendres Volcan.







- Altitude de l'aérodrome : 299 ft
- Code IATA : EDM
- Voir les cartes d'approche


LFRI - La Roche Sur Yon - Les Ajoncs

DERNIER METAR :
  • 211000Z AUTO 28016G26KT 240V300 9999 OVC005 12/11 Q1020 TEMPO 4000 -RADZ

METARs EXPIRÉS :
  • 210930Z AUTO 28014KT 240V300 9999 OVC005 12/11 Q1020 TEMPO 28017G27KT 4000 -RADZ
  • 210900Z AUTO 29015KT 9999 OVC005 12/11 Q1020 TEMPO 28017G27KT 4000 -RADZ
  • 210830Z AUTO 28015KT 6000 -RADZ OVC004 12/11 Q1019 TEMPO 28017G27KT 4000 -RADZ
  • 210800Z AUTO 28014KT 9999 OVC005 12/11 Q1019 TEMPO 28017G27KT 4000 -RADZ
  • 210730Z AUTO 28014KT 4800 -DZ BR OVC004 12/11 Q1019 TEMPO 28017G27KT

TAF TAF LFRI
Valide du 21 à 06h jusqu'au 22 à 06h UTC


210500Z 2106/2206 28012KT 9999 BKN015
TEMPO 2106/2206 4000 -RADZ OVC004
TEMPO 2108/2204 28017G27KT
BECMG 2204/2206 22020G35KT
Pas de NOTAMs connus pour ce terrain.
2 SIGMETs publiés pour la FIR Brest (LFRR) :
 
Annulation du SIGMET 1 
LFRR SIGMET 2 VALID 210855/211200 LFPW
LFRR BREST FIR/UIR CNL SIGMET 1 210800/211200=
SIGMET 1  ANNULÉ :
Givrage fort
LFRR SIGMET 1 VALID 210800/211200 LFPW
LFRR BREST FIR/UIR SEV ICE FCST NE OF LINE N4845 W00015 - N5000 W00145 FL050/150 MOV NE 15KT NC=



MET'MAP, la Météo Aéronautique d'un coup d'oeil ! - Copyright ORBIFLY Décembre 2007 - Disclaimer

ORBIFLY MET'MAP TEAM :

Programmation & Développement : Alexandra Zaïnal
Conception & Développement : Baudouin d'Aumeries
Co-Programmation & Développement : Marc-Olivier Méhu
Soutien technique & logistique : Manuel Goepfert

Contact : metmap@orbifly.com




SOURCES & CREDITS :

   NOAA